Terminal Aerodrome Forecast
Issued by NWS

Home | Current Version | Previous Version | Text Only | Print | Product List | Glossary On
Versions: 1 2 3 4 5 6 7 8 9 10 11 12 13 14 15 16 17 18 19 20 21 22 23 24 25 26 27 28 29
202
FTUS41 KOKX 301313 AAA
TAFSWF
TAF AMD
KSWF 301313Z 3013/0118 07013KT P6SM BKN030 OVC100
     FM301700 08016G23KT 4SM -SHRA OVC015
     FM302000 08014KT 2SM -SHRA BR OVC010
     FM010300 08012KT 2SM SHRA BR OVC009
     FM011200 07009KT 2SM -SHRA BR OVC009=

USA.gov is the U.S. government's official web portal to all federal, state and local government web resources and services.